This is the latest recevied weather packets stored in our database for station/object DJ2FR. If no packets are shown the sender has not sent any weather packets the latest 10 day(s).
| Time | Temp. | Humidity | Pressure | Rain* | Wind** | Luminosity | Snow |
|---|---|---|---|---|---|---|---|
| 1777793449 | 21.67° C | 39% | 1020.4 hPa | - | - | - | - |
| 1777792845 | 20.56° C | 40% | 1020.3 hPa | - | - | - | - |
| 1777792242 | 19.44° C | 43% | 1019.8 hPa | - | - | - | - |
| 1777791637 | 18.89° C | 43% | 1020 hPa | - | - | - | - |
| 1777791033 | 18.33° C | 44% | 1020.1 hPa | - | - | - | - |
| 1777790429 | 18.33° C | 45% | 1020.4 hPa | - | - | - | - |
| 1777789825 | 18.33° C | 45% | 1020.5 hPa | - | - | - | - |
| 1777789221 | 17.78° C | 43% | 1020.7 hPa | - | - | - | - |
| 1777788617 | 17.22° C | 44% | 1021.3 hPa | - | - | - | - |
| 1777788013 | 16.67° C | 44% | 1021 hPa | - | - | - | - |
| 1777787409 | 15.56° C | 47% | 1021.4 hPa | - | - | - | - |
| 1777786805 | 14.44° C | 51% | 1020.6 hPa | - | - | - | - |
| 1777786202 | 13.33° C | 55% | 1020.5 hPa | - | - | - | - |
| 1777645812 | 62.22° C | 100% | 1030.5 hPa | - | - | - | - |
| 1777645208 | 63.33° C | 100% | 1030.4 hPa | - | - | - | - |
| 1777644604 | 64.44° C | 100% | 1029.9 hPa | - | - | - | - |
| 1777644000 | 65° C | 100% | 1029.3 hPa | - | - | - | - |
| 1777643397 | 65.56° C | 100% | 1027.7 hPa | - | - | - | - |
| 1777642792 | 66.11° C | 100% | 1028.5 hPa | - | - | - | - |
| 1777642188 | 66.11° C | 100% | 1029.1 hPa | - | - | - | - |
| 1777641584 | 67.22° C | 100% | 1029.3 hPa | - | - | - | - |
| 1777640980 | 67.78° C | 100% | 1027 hPa | - | - | - | - |
| 1777640376 | 67.78° C | 100% | 1028.1 hPa | - | - | - | - |
| 1777639772 | 67.78° C | 100% | 1030 hPa | - | - | - | - |
| 1777639168 | 67.78° C | 100% | 1029.1 hPa | - | - | - | - |
* Rain since midnight (hover to see other rain measurements)
** Current wind speed in m/s (hover to see current wind gust speed)